sensor_id;sensor_type;location;lat;lon;timestamp;temperature;humidity
6439;DHT22;3252;52.540;13.290;2023-03-21T00:00:35;10.00;99.90
6439;DHT22;3252;52.540;13.290;2023-03-21T00:02:53;10.00;99.90
6439;DHT22;3252;52.540;13.290;2023-03-21T00:05:05;10.00;99.90
6439;DHT22;3252;52.540;13.290;2023-03-21T00:07:17;10.00;99.90
6439;DHT22;3252;52.540;13.290;2023-03-21T00:09:49;10.00;99.90
6439;DHT22;3252;52.540;13.290;2023-03-21T00:12:04;10.00;99.90
6439;DHT22;3252;52.540;13.290;2023-03-21T00:14:32;10.00;99.90
6439;DHT22;3252;52.540;13.290;2023-03-21T00:17:05;10.00;99.90
6439;DHT22;3252;52.540;13.290;2023-03-21T00:19:20;10.00;99.90
6439;DHT22;3252;52.540;13.290;2023-03-21T00:21:42;10.00;99.90
6439;DHT22;3252;52.540;13.290;2023-03-21T00:24:08;10.00;99.90
6439;DHT22;3252;52.540;13.290;2023-03-21T00:26:26;9.90;99.90
6439;DHT22;3252;52.540;13.290;2023-03-21T00:28:28;9.90;99.90
6439;DHT22;3252;52.540;13.290;2023-03-21T00:30:32;9.90;99.90
6439;DHT22;3252;52.540;13.290;2023-03-21T00:32:35;9.90;99.90
6439;DHT22;3252;52.540;13.290;2023-03-21T00:34:37;9.90;99.90
6439;DHT22;3252;52.540;13.290;2023-03-21T00:36:40;10.00;99.90
6439;DHT22;3252;52.540;13.290;2023-03-21T00:38:49;9.90;99.90
6439;DHT22;3252;52.540;13.290;2023-03-21T00:40:53;9.90;99.90
6439;DHT22;3252;52.540;13.290;2023-03-21T00:42:56;9.90;99.90
6439;DHT22;3252;52.540;13.290;2023-03-21T00:44:58;9.90;99.90
6439;DHT22;3252;52.540;13.290;2023-03-21T00:47:06;9.90;99.90
6439;DHT22;3252;52.540;13.290;2023-03-21T00:49:09;9.90;99.90
6439;DHT22;3252;52.540;13.290;2023-03-21T00:51:13;9.90;99.90
6439;DHT22;3252;52.540;13.290;2023-03-21T00:53:16;9.80;99.90
6439;DHT22;3252;52.540;13.290;2023-03-21T00:55:22;9.80;99.90
6439;DHT22;3252;52.540;13.290;2023-03-21T00:57:28;9.90;99.90
6439;DHT22;3252;52.540;13.290;2023-03-21T00:59:32;9.80;99.90
6439;DHT22;3252;52.540;13.290;2023-03-21T01:01:37;9.80;99.90
6439;DHT22;3252;52.540;13.290;2023-03-21T01:03:41;9.80;99.90
6439;DHT22;3252;52.540;13.290;2023-03-21T01:05:57;9.90;99.90
6439;DHT22;3252;52.540;13.290;2023-03-21T01:08:07;9.80;99.90
6439;DHT22;3252;52.540;13.290;2023-03-21T01:10:10;9.80;99.90
6439;DHT22;3252;52.540;13.290;2023-03-21T01:12:12;9.80;99.90
6439;DHT22;3252;52.540;13.290;2023-03-21T01:14:18;9.80;99.90
6439;DHT22;3252;52.540;13.290;2023-03-21T01:16:22;9.80;99.90
6439;DHT22;3252;52.540;13.290;2023-03-21T01:18:31;9.80;99.90
6439;DHT22;3252;52.540;13.290;2023-03-21T01:20:35;9.80;99.90
6439;DHT22;3252;52.540;13.290;2023-03-21T01:22:49;9.80;99.90
6439;DHT22;3252;52.540;13.290;2023-03-21T01:27:13;9.80;99.90
6439;DHT22;3252;52.540;13.290;2023-03-21T01:29:20;9.70;99.90
6439;DHT22;3252;52.540;13.290;2023-03-21T01:31:22;9.70;99.90
6439;DHT22;3252;52.540;13.290;2023-03-21T01:33:29;9.70;99.90
6439;DHT22;3252;52.540;13.290;2023-03-21T01:35:35;9.60;99.90
6439;DHT22;3252;52.540;13.290;2023-03-21T01:37:38;9.60;99.90
6439;DHT22;3252;52.540;13.290;2023-03-21T01:39:41;9.50;99.90
6439;DHT22;3252;52.540;13.290;2023-03-21T01:41:47;9.50;99.90
6439;DHT22;3252;52.540;13.290;2023-03-21T01:43:58;9.40;99.90
6439;DHT22;3252;52.540;13.290;2023-03-21T01:46:35;9.40;99.90
6439;DHT22;3252;52.540;13.290;2023-03-21T01:48:49;9.30;99.90
6439;DHT22;3252;52.540;13.290;2023-03-21T01:50:53;9.30;99.90
6439;DHT22;3252;52.540;13.290;2023-03-21T01:53:12;9.30;99.90
6439;DHT22;3252;52.540;13.290;2023-03-21T01:55:24;9.30;99.90
6439;DHT22;3252;52.540;13.290;2023-03-21T01:57:57;9.30;99.90
6439;DHT22;3252;52.540;13.290;2023-03-21T02:00:07;9.20;99.90
6439;DHT22;3252;52.540;13.290;2023-03-21T02:02:35;9.20;99.90
6439;DHT22;3252;52.540;13.290;2023-03-21T02:05:07;9.20;99.90
6439;DHT22;3252;52.540;13.290;2023-03-21T02:07:14;9.20;99.90
6439;DHT22;3252;52.540;13.290;2023-03-21T02:09:33;9.20;99.90
6439;DHT22;3252;52.540;13.290;2023-03-21T02:11:40;9.20;99.90
6439;DHT22;3252;52.540;13.290;2023-03-21T02:13:50;9.10;99.90
6439;DHT22;3252;52.540;13.290;2023-03-21T02:15:58;9.10;99.90
6439;DHT22;3252;52.540;13.290;2023-03-21T02:18:18;9.00;99.90
6439;DHT22;3252;52.540;13.290;2023-03-21T02:20:48;9.00;99.90
6439;DHT22;3252;52.540;13.290;2023-03-21T02:23:32;9.00;99.90
6439;DHT22;3252;52.540;13.290;2023-03-21T02:28:35;9.00;99.90
6439;DHT22;3252;52.540;13.290;2023-03-21T02:30:59;9.00;99.90
6439;DHT22;3252;52.540;13.290;2023-03-21T02:33:38;9.00;99.90
6439;DHT22;3252;52.540;13.290;2023-03-21T02:35:59;9.00;99.90
6439;DHT22;3252;52.540;13.290;2023-03-21T02:38:40;8.90;99.90
6439;DHT22;3252;52.540;13.290;2023-03-21T02:40:51;8.90;99.90
6439;DHT22;3252;52.540;13.290;2023-03-21T02:43:05;9.00;99.90
6439;DHT22;3252;52.540;13.290;2023-03-21T02:45:15;9.00;99.90
6439;DHT22;3252;52.540;13.290;2023-03-21T02:47:33;9.00;99.90
6439;DHT22;3252;52.540;13.290;2023-03-21T02:49:45;9.00;99.90
6439;DHT22;3252;52.540;13.290;2023-03-21T02:51:56;8.90;99.90
6439;DHT22;3252;52.540;13.290;2023-03-21T02:54:29;8.90;99.90
6439;DHT22;3252;52.540;13.290;2023-03-21T02:56:33;8.80;99.90
6439;DHT22;3252;52.540;13.290;2023-03-21T02:58:38;8.80;99.90
6439;DHT22;3252;52.540;13.290;2023-03-21T03:00:41;8.80;99.90
6439;DHT22;3252;52.540;13.290;2023-03-21T03:03:03;8.80;99.90
6439;DHT22;3252;52.540;13.290;2023-03-21T03:05:19;8.80;99.90
6439;DHT22;3252;52.540;13.290;2023-03-21T03:07:35;8.80;99.90
6439;DHT22;3252;52.540;13.290;2023-03-21T03:10:02;8.90;99.90
6439;DHT22;3252;52.540;13.290;2023-03-21T03:12:20;8.90;99.90
6439;DHT22;3252;52.540;13.290;2023-03-21T03:14:39;8.80;99.90
6439;DHT22;3252;52.540;13.290;2023-03-21T03:17:02;8.90;99.90
6439;DHT22;3252;52.540;13.290;2023-03-21T03:19:14;8.80;99.90
6439;DHT22;3252;52.540;13.290;2023-03-21T03:21:27;8.80;99.90
6439;DHT22;3252;52.540;13.290;2023-03-21T03:23:44;8.80;99.90
6439;DHT22;3252;52.540;13.290;2023-03-21T03:25:57;8.70;99.90
6439;DHT22;3252;52.540;13.290;2023-03-21T03:28:03;8.70;99.90
6439;DHT22;3252;52.540;13.290;2023-03-21T03:30:10;8.70;99.90
6439;DHT22;3252;52.540;13.290;2023-03-21T03:32:18;8.70;99.90
6439;DHT22;3252;52.540;13.290;2023-03-21T03:34:27;8.60;99.90
6439;DHT22;3252;52.540;13.290;2023-03-21T03:36:35;8.70;99.90
6439;DHT22;3252;52.540;13.290;2023-03-21T03:38:49;8.70;99.90
6439;DHT22;3252;52.540;13.290;2023-03-21T03:41:03;8.70;99.90
6439;DHT22;3252;52.540;13.290;2023-03-21T03:43:23;8.70;99.90
6439;DHT22;3252;52.540;13.290;2023-03-21T03:45:32;8.70;99.90
6439;DHT22;3252;52.540;13.290;2023-03-21T03:47:39;8.70;99.90
6439;DHT22;3252;52.540;13.290;2023-03-21T03:49:49;8.60;99.90
6439;DHT22;3252;52.540;13.290;2023-03-21T03:52:00;8.60;99.90
6439;DHT22;3252;52.540;13.290;2023-03-21T03:54:18;8.60;99.90
6439;DHT22;3252;52.540;13.290;2023-03-21T03:56:25;8.60;99.90
6439;DHT22;3252;52.540;13.290;2023-03-21T03:58:29;8.60;99.90
6439;DHT22;3252;52.540;13.290;2023-03-21T04:00:36;8.60;99.90
6439;DHT22;3252;52.540;13.290;2023-03-21T04:02:49;8.70;99.90
6439;DHT22;3252;52.540;13.290;2023-03-21T04:05:00;8.70;99.90
6439;DHT22;3252;52.540;13.290;2023-03-21T04:07:25;8.70;99.90
6439;DHT22;3252;52.540;13.290;2023-03-21T04:09:32;8.70;99.90
6439;DHT22;3252;52.540;13.290;2023-03-21T04:11:38;8.70;99.90
6439;DHT22;3252;52.540;13.290;2023-03-21T04:13:41;8.80;99.90
6439;DHT22;3252;52.540;13.290;2023-03-21T04:15:46;8.70;99.90
6439;DHT22;3252;52.540;13.290;2023-03-21T04:17:52;8.70;99.90
6439;DHT22;3252;52.540;13.290;2023-03-21T04:19:55;8.70;99.90
6439;DHT22;3252;52.540;13.290;2023-03-21T04:21:58;8.70;99.90
6439;DHT22;3252;52.540;13.290;2023-03-21T04:24:00;8.70;99.90
6439;DHT22;3252;52.540;13.290;2023-03-21T04:26:05;8.70;99.90
6439;DHT22;3252;52.540;13.290;2023-03-21T04:28:14;8.70;99.90
6439;DHT22;3252;52.540;13.290;2023-03-21T04:30:25;8.70;99.90
6439;DHT22;3252;52.540;13.290;2023-03-21T04:32:36;8.70;99.90
6439;DHT22;3252;52.540;13.290;2023-03-21T04:34:45;8.70;99.90
6439;DHT22;3252;52.540;13.290;2023-03-21T04:36:51;8.70;99.90
6439;DHT22;3252;52.540;13.290;2023-03-21T04:38:57;8.70;99.90
6439;DHT22;3252;52.540;13.290;2023-03-21T04:41:01;8.70;99.90
6439;DHT22;3252;52.540;13.290;2023-03-21T04:43:04;8.70;99.90
6439;DHT22;3252;52.540;13.290;2023-03-21T04:45:14;8.60;99.90
6439;DHT22;3252;52.540;13.290;2023-03-21T04:47:20;8.70;99.90
6439;DHT22;3252;52.540;13.290;2023-03-21T04:49:32;8.60;99.90
6439;DHT22;3252;52.540;13.290;2023-03-21T04:51:38;8.60;99.90
6439;DHT22;3252;52.540;13.290;2023-03-21T04:53:46;8.70;99.90
6439;DHT22;3252;52.540;13.290;2023-03-21T04:55:49;8.70;99.90
6439;DHT22;3252;52.540;13.290;2023-03-21T04:57:51;8.70;99.90
6439;DHT22;3252;52.540;13.290;2023-03-21T04:59:57;8.70;99.90
6439;DHT22;3252;52.540;13.290;2023-03-21T05:02:07;8.70;99.90
6439;DHT22;3252;52.540;13.290;2023-03-21T05:04:11;8.70;99.90
6439;DHT22;3252;52.540;13.290;2023-03-21T05:06:17;8.60;99.90
6439;DHT22;3252;52.540;13.290;2023-03-21T05:08:20;8.60;99.90
6439;DHT22;3252;52.540;13.290;2023-03-21T05:10:23;8.60;99.90
6439;DHT22;3252;52.540;13.290;2023-03-21T05:12:27;8.60;99.90
6439;DHT22;3252;52.540;13.290;2023-03-21T05:14:30;8.60;99.90
6439;DHT22;3252;52.540;13.290;2023-03-21T05:16:33;8.60;99.90
6439;DHT22;3252;52.540;13.290;2023-03-21T05:18:37;8.60;99.90
6439;DHT22;3252;52.540;13.290;2023-03-21T05:20:49;8.60;99.90
6439;DHT22;3252;52.540;13.290;2023-03-21T05:23:03;8.50;99.90
6439;DHT22;3252;52.540;13.290;2023-03-21T05:25:07;8.50;99.90
6439;DHT22;3252;52.540;13.290;2023-03-21T05:27:30;8.60;99.90
6439;DHT22;3252;52.540;13.290;2023-03-21T05:29:48;8.60;99.90
6439;DHT22;3252;52.540;13.290;2023-03-21T05:31:53;8.60;99.90
6439;DHT22;3252;52.540;13.290;2023-03-21T05:34:00;8.60;99.90
6439;DHT22;3252;52.540;13.290;2023-03-21T05:36:07;8.60;99.90
6439;DHT22;3252;52.540;13.290;2023-03-21T05:38:18;8.60;99.90
6439;DHT22;3252;52.540;13.290;2023-03-21T05:40:26;8.60;99.90
6439;DHT22;3252;52.540;13.290;2023-03-21T05:42:37;8.60;99.90
6439;DHT22;3252;52.540;13.290;2023-03-21T05:45:04;8.50;99.90
6439;DHT22;3252;52.540;13.290;2023-03-21T05:47:15;8.50;99.90
6439;DHT22;3252;52.540;13.290;2023-03-21T05:49:23;8.50;99.90
6439;DHT22;3252;52.540;13.290;2023-03-21T05:51:34;8.50;99.90
6439;DHT22;3252;52.540;13.290;2023-03-21T05:53:39;8.50;99.90
6439;DHT22;3252;52.540;13.290;2023-03-21T05:56:01;8.50;99.90
6439;DHT22;3252;52.540;13.290;2023-03-21T05:58:39;8.50;99.90
6439;DHT22;3252;52.540;13.290;2023-03-21T06:00:42;8.50;99.90
6439;DHT22;3252;52.540;13.290;2023-03-21T06:02:57;8.50;99.90
6439;DHT22;3252;52.540;13.290;2023-03-21T06:05:15;8.60;99.90
6439;DHT22;3252;52.540;13.290;2023-03-21T06:07:18;8.50;99.90
6439;DHT22;3252;52.540;13.290;2023-03-21T06:09:22;8.50;99.90
6439;DHT22;3252;52.540;13.290;2023-03-21T06:11:36;8.50;99.90
6439;DHT22;3252;52.540;13.290;2023-03-21T06:14:01;8.40;99.90
6439;DHT22;3252;52.540;13.290;2023-03-21T06:16:08;8.40;99.90
6439;DHT22;3252;52.540;13.290;2023-03-21T06:18:11;8.40;99.90
6439;DHT22;3252;52.540;13.290;2023-03-21T06:20:23;8.50;99.90
6439;DHT22;3252;52.540;13.290;2023-03-21T06:22:30;8.50;99.90
6439;DHT22;3252;52.540;13.290;2023-03-21T06:24:32;8.50;99.90
6439;DHT22;3252;52.540;13.290;2023-03-21T06:26:35;8.50;99.90
6439;DHT22;3252;52.540;13.290;2023-03-21T06:28:38;8.60;99.90
6439;DHT22;3252;52.540;13.290;2023-03-21T06:30:41;8.60;99.90
6439;DHT22;3252;52.540;13.290;2023-03-21T06:32:49;8.60;99.90
6439;DHT22;3252;52.540;13.290;2023-03-21T06:34:56;8.60;99.90
6439;DHT22;3252;52.540;13.290;2023-03-21T06:37:00;8.60;99.90
6439;DHT22;3252;52.540;13.290;2023-03-21T06:39:07;8.60;99.90
6439;DHT22;3252;52.540;13.290;2023-03-21T06:41:14;8.60;99.90
6439;DHT22;3252;52.540;13.290;2023-03-21T06:43:25;8.60;99.90
6439;DHT22;3252;52.540;13.290;2023-03-21T06:45:27;8.70;99.90
6439;DHT22;3252;52.540;13.290;2023-03-21T06:47:30;8.70;99.90
6439;DHT22;3252;52.540;13.290;2023-03-21T06:49:36;8.70;99.90
6439;DHT22;3252;52.540;13.290;2023-03-21T06:51:43;8.70;99.90
6439;DHT22;3252;52.540;13.290;2023-03-21T06:53:52;8.70;99.90
6439;DHT22;3252;52.540;13.290;2023-03-21T06:56:07;8.70;99.90
6439;DHT22;3252;52.540;13.290;2023-03-21T06:58:10;8.70;99.90
6439;DHT22;3252;52.540;13.290;2023-03-21T07:00:14;8.70;99.90
6439;DHT22;3252;52.540;13.290;2023-03-21T07:02:20;8.70;99.90
6439;DHT22;3252;52.540;13.290;2023-03-21T07:04:32;8.70;99.90
6439;DHT22;3252;52.540;13.290;2023-03-21T07:06:35;8.70;99.90
6439;DHT22;3252;52.540;13.290;2023-03-21T07:08:39;8.70;99.90
6439;DHT22;3252;52.540;13.290;2023-03-21T07:10:44;8.70;99.90
6439;DHT22;3252;52.540;13.290;2023-03-21T07:12:47;8.80;99.90
6439;DHT22;3252;52.540;13.290;2023-03-21T07:15:04;8.80;99.90
6439;DHT22;3252;52.540;13.290;2023-03-21T07:17:08;8.80;99.90
6439;DHT22;3252;52.540;13.290;2023-03-21T07:19:16;8.80;99.90
6439;DHT22;3252;52.540;13.290;2023-03-21T07:21:36;8.80;99.90
6439;DHT22;3252;52.540;13.290;2023-03-21T07:23:39;8.80;99.90
6439;DHT22;3252;52.540;13.290;2023-03-21T07:25:43;8.80;99.90
6439;DHT22;3252;52.540;13.290;2023-03-21T07:27:51;8.80;99.90
6439;DHT22;3252;52.540;13.290;2023-03-21T07:29:54;8.80;99.90
6439;DHT22;3252;52.540;13.290;2023-03-21T07:32:00;8.80;99.90
6439;DHT22;3252;52.540;13.290;2023-03-21T07:34:02;8.80;99.90
6439;DHT22;3252;52.540;13.290;2023-03-21T07:36:09;8.80;99.90
6439;DHT22;3252;52.540;13.290;2023-03-21T07:38:13;8.80;99.90
6439;DHT22;3252;52.540;13.290;2023-03-21T07:40:27;8.80;99.90
6439;DHT22;3252;52.540;13.290;2023-03-21T07:42:33;8.90;99.90
6439;DHT22;3252;52.540;13.290;2023-03-21T07:44:40;8.90;99.90
6439;DHT22;3252;52.540;13.290;2023-03-21T07:47:02;9.00;99.90
6439;DHT22;3252;52.540;13.290;2023-03-21T07:49:13;9.00;99.90
6439;DHT22;3252;52.540;13.290;2023-03-21T07:51:18;9.00;99.90
6439;DHT22;3252;52.540;13.290;2023-03-21T07:53:21;9.00;99.90
6439;DHT22;3252;52.540;13.290;2023-03-21T07:55:24;9.00;99.90
6439;DHT22;3252;52.540;13.290;2023-03-21T07:57:29;9.00;99.90
6439;DHT22;3252;52.540;13.290;2023-03-21T07:59:38;9.10;99.90
6439;DHT22;3252;52.540;13.290;2023-03-21T08:01:49;9.10;99.90
6439;DHT22;3252;52.540;13.290;2023-03-21T08:03:55;9.10;99.90
6439;DHT22;3252;52.540;13.290;2023-03-21T08:05:58;9.20;99.90
6439;DHT22;3252;52.540;13.290;2023-03-21T08:08:00;9.20;99.90
6439;DHT22;3252;52.540;13.290;2023-03-21T08:10:07;9.20;99.90
6439;DHT22;3252;52.540;13.290;2023-03-21T08:12:14;9.20;99.90
6439;DHT22;3252;52.540;13.290;2023-03-21T08:14:22;9.20;99.90
6439;DHT22;3252;52.540;13.290;2023-03-21T08:16:26;9.30;99.90
6439;DHT22;3252;52.540;13.290;2023-03-21T08:18:29;9.30;99.90
6439;DHT22;3252;52.540;13.290;2023-03-21T08:20:32;9.20;99.90
6439;DHT22;3252;52.540;13.290;2023-03-21T08:22:35;9.30;99.90
6439;DHT22;3252;52.540;13.290;2023-03-21T08:24:37;9.30;99.90
6439;DHT22;3252;52.540;13.290;2023-03-21T08:26:40;9.30;99.90
6439;DHT22;3252;52.540;13.290;2023-03-21T08:28:45;9.30;99.90
6439;DHT22;3252;52.540;13.290;2023-03-21T08:30:52;9.40;99.90
6439;DHT22;3252;52.540;13.290;2023-03-21T08:32:58;9.40;99.90
6439;DHT22;3252;52.540;13.290;2023-03-21T08:35:01;9.50;99.90
6439;DHT22;3252;52.540;13.290;2023-03-21T08:37:04;9.50;99.90
6439;DHT22;3252;52.540;13.290;2023-03-21T08:39:07;9.50;99.90
6439;DHT22;3252;52.540;13.290;2023-03-21T08:41:10;9.50;99.90
6439;DHT22;3252;52.540;13.290;2023-03-21T08:43:12;9.60;99.90
6439;DHT22;3252;52.540;13.290;2023-03-21T08:45:18;9.50;99.90
6439;DHT22;3252;52.540;13.290;2023-03-21T08:47:23;9.60;99.90
6439;DHT22;3252;52.540;13.290;2023-03-21T08:49:27;9.60;99.90
6439;DHT22;3252;52.540;13.290;2023-03-21T08:51:29;9.70;99.90
6439;DHT22;3252;52.540;13.290;2023-03-21T08:53:33;9.70;99.90
6439;DHT22;3252;52.540;13.290;2023-03-21T08:55:36;9.80;99.90
6439;DHT22;3252;52.540;13.290;2023-03-21T08:57:41;9.80;99.90
6439;DHT22;3252;52.540;13.290;2023-03-21T08:59:44;9.90;99.90
6439;DHT22;3252;52.540;13.290;2023-03-21T09:01:46;9.90;99.90
6439;DHT22;3252;52.540;13.290;2023-03-21T09:03:48;9.90;99.90
6439;DHT22;3252;52.540;13.290;2023-03-21T09:05:53;10.00;99.90
6439;DHT22;3252;52.540;13.290;2023-03-21T09:07:55;9.90;99.90
6439;DHT22;3252;52.540;13.290;2023-03-21T09:09:57;9.90;99.90
6439;DHT22;3252;52.540;13.290;2023-03-21T09:12:00;9.90;99.90
6439;DHT22;3252;52.540;13.290;2023-03-21T09:14:02;9.90;99.90
6439;DHT22;3252;52.540;13.290;2023-03-21T09:16:05;9.90;99.90
6439;DHT22;3252;52.540;13.290;2023-03-21T09:18:09;9.90;99.90
6439;DHT22;3252;52.540;13.290;2023-03-21T09:20:18;9.80;99.90
6439;DHT22;3252;52.540;13.290;2023-03-21T09:22:26;9.80;99.90
6439;DHT22;3252;52.540;13.290;2023-03-21T09:24:28;9.80;99.90
6439;DHT22;3252;52.540;13.290;2023-03-21T09:26:34;9.80;99.90
6439;DHT22;3252;52.540;13.290;2023-03-21T09:28:36;9.80;99.90
6439;DHT22;3252;52.540;13.290;2023-03-21T09:30:39;9.70;99.90
6439;DHT22;3252;52.540;13.290;2023-03-21T09:32:42;9.60;99.90
6439;DHT22;3252;52.540;13.290;2023-03-21T09:34:48;9.60;99.90
6439;DHT22;3252;52.540;13.290;2023-03-21T09:36:51;9.70;99.90
6439;DHT22;3252;52.540;13.290;2023-03-21T09:39:01;9.70;99.90
6439;DHT22;3252;52.540;13.290;2023-03-21T09:41:19;9.60;99.90
6439;DHT22;3252;52.540;13.290;2023-03-21T09:43:33;9.60;99.90
6439;DHT22;3252;52.540;13.290;2023-03-21T09:45:45;9.60;99.90
6439;DHT22;3252;52.540;13.290;2023-03-21T09:47:50;9.70;99.90
6439;DHT22;3252;52.540;13.290;2023-03-21T09:49:57;9.70;99.90
6439;DHT22;3252;52.540;13.290;2023-03-21T09:52:02;9.70;99.90
6439;DHT22;3252;52.540;13.290;2023-03-21T09:54:12;9.70;99.90
6439;DHT22;3252;52.540;13.290;2023-03-21T09:56:18;9.80;99.90
6439;DHT22;3252;52.540;13.290;2023-03-21T09:58:25;9.90;99.90
6439;DHT22;3252;52.540;13.290;2023-03-21T10:00:35;9.90;99.90
6439;DHT22;3252;52.540;13.290;2023-03-21T10:02:39;9.90;99.90
6439;DHT22;3252;52.540;13.290;2023-03-21T10:04:47;10.00;99.90
6439;DHT22;3252;52.540;13.290;2023-03-21T10:06:54;10.00;99.90
6439;DHT22;3252;52.540;13.290;2023-03-21T10:09:00;10.10;99.90
6439;DHT22;3252;52.540;13.290;2023-03-21T10:11:12;9.90;99.90
6439;DHT22;3252;52.540;13.290;2023-03-21T10:13:24;10.00;99.90
6439;DHT22;3252;52.540;13.290;2023-03-21T10:15:27;10.10;99.90
6439;DHT22;3252;52.540;13.290;2023-03-21T10:17:33;10.10;99.90
6439;DHT22;3252;52.540;13.290;2023-03-21T10:19:41;10.10;99.90
6439;DHT22;3252;52.540;13.290;2023-03-21T10:21:47;10.10;99.90
6439;DHT22;3252;52.540;13.290;2023-03-21T10:23:51;10.10;99.90
6439;DHT22;3252;52.540;13.290;2023-03-21T10:25:56;10.20;99.90
6439;DHT22;3252;52.540;13.290;2023-03-21T10:28:01;10.30;99.90
6439;DHT22;3252;52.540;13.290;2023-03-21T10:30:06;10.40;99.90
6439;DHT22;3252;52.540;13.290;2023-03-21T10:32:13;10.50;99.90
6439;DHT22;3252;52.540;13.290;2023-03-21T10:34:18;10.60;99.90
6439;DHT22;3252;52.540;13.290;2023-03-21T10:36:23;10.60;99.90
6439;DHT22;3252;52.540;13.290;2023-03-21T10:38:27;10.70;99.90
6439;DHT22;3252;52.540;13.290;2023-03-21T10:40:31;10.70;99.90
6439;DHT22;3252;52.540;13.290;2023-03-21T10:42:34;10.80;99.90
6439;DHT22;3252;52.540;13.290;2023-03-21T10:44:38;10.80;99.90
6439;DHT22;3252;52.540;13.290;2023-03-21T10:46:50;10.90;99.90
6439;DHT22;3252;52.540;13.290;2023-03-21T10:48:53;10.90;99.90
6439;DHT22;3252;52.540;13.290;2023-03-21T10:50:55;10.90;99.90
6439;DHT22;3252;52.540;13.290;2023-03-21T10:52:59;10.90;99.90
6439;DHT22;3252;52.540;13.290;2023-03-21T10:55:07;11.00;99.90
6439;DHT22;3252;52.540;13.290;2023-03-21T10:57:17;11.00;99.90
6439;DHT22;3252;52.540;13.290;2023-03-21T10:59:27;11.00;99.90
6439;DHT22;3252;52.540;13.290;2023-03-21T11:01:36;11.20;99.90
6439;DHT22;3252;52.540;13.290;2023-03-21T11:03:42;11.20;99.90
6439;DHT22;3252;52.540;13.290;2023-03-21T11:05:47;11.10;99.90
6439;DHT22;3252;52.540;13.290;2023-03-21T11:07:58;11.10;99.90
6439;DHT22;3252;52.540;13.290;2023-03-21T11:10:08;11.10;99.90
6439;DHT22;3252;52.540;13.290;2023-03-21T11:12:14;11.10;99.90
6439;DHT22;3252;52.540;13.290;2023-03-21T11:14:32;11.10;99.90
6439;DHT22;3252;52.540;13.290;2023-03-21T11:16:38;11.20;99.90
6439;DHT22;3252;52.540;13.290;2023-03-21T11:18:43;11.30;99.90
6439;DHT22;3252;52.540;13.290;2023-03-21T11:20:52;11.30;99.90
6439;DHT22;3252;52.540;13.290;2023-03-21T11:22:55;11.40;99.90
6439;DHT22;3252;52.540;13.290;2023-03-21T11:25:01;11.30;99.90
6439;DHT22;3252;52.540;13.290;2023-03-21T11:27:05;11.30;99.90
6439;DHT22;3252;52.540;13.290;2023-03-21T11:29:17;11.30;99.90
6439;DHT22;3252;52.540;13.290;2023-03-21T11:31:21;11.30;99.90
6439;DHT22;3252;52.540;13.290;2023-03-21T11:33:27;11.40;99.90
6439;DHT22;3252;52.540;13.290;2023-03-21T11:35:34;11.40;99.90
6439;DHT22;3252;52.540;13.290;2023-03-21T11:37:38;11.40;99.90
6439;DHT22;3252;52.540;13.290;2023-03-21T11:39:45;11.40;99.90
6439;DHT22;3252;52.540;13.290;2023-03-21T11:41:50;11.50;99.90
6439;DHT22;3252;52.540;13.290;2023-03-21T11:43:53;11.50;99.90
6439;DHT22;3252;52.540;13.290;2023-03-21T11:45:56;11.70;99.90
6439;DHT22;3252;52.540;13.290;2023-03-21T11:48:00;11.90;99.90
6439;DHT22;3252;52.540;13.290;2023-03-21T11:50:19;12.00;99.90
6439;DHT22;3252;52.540;13.290;2023-03-21T11:52:34;12.20;99.90
6439;DHT22;3252;52.540;13.290;2023-03-21T11:54:56;12.30;99.90
6439;DHT22;3252;52.540;13.290;2023-03-21T11:57:10;12.40;99.90
6439;DHT22;3252;52.540;13.290;2023-03-21T11:59:28;12.50;99.90
6439;DHT22;3252;52.540;13.290;2023-03-21T12:01:39;12.50;99.90
6439;DHT22;3252;52.540;13.290;2023-03-21T12:03:57;12.60;99.90
6439;DHT22;3252;52.540;13.290;2023-03-21T12:06:02;12.50;99.90
6439;DHT22;3252;52.540;13.290;2023-03-21T12:08:16;12.40;99.90
6439;DHT22;3252;52.540;13.290;2023-03-21T12:10:35;12.40;99.90
6439;DHT22;3252;52.540;13.290;2023-03-21T12:12:43;12.40;99.90
6439;DHT22;3252;52.540;13.290;2023-03-21T12:14:57;12.50;99.90
6439;DHT22;3252;52.540;13.290;2023-03-21T12:17:12;12.50;99.90
6439;DHT22;3252;52.540;13.290;2023-03-21T12:19:38;12.60;99.90
6439;DHT22;3252;52.540;13.290;2023-03-21T12:21:55;12.80;99.90
6439;DHT22;3252;52.540;13.290;2023-03-21T12:24:05;12.90;99.90
6439;DHT22;3252;52.540;13.290;2023-03-21T12:26:20;12.70;99.90
6439;DHT22;3252;52.540;13.290;2023-03-21T12:28:34;12.80;99.90
6439;DHT22;3252;52.540;13.290;2023-03-21T12:30:44;12.90;99.90
6439;DHT22;3252;52.540;13.290;2023-03-21T12:32:59;12.90;99.90
6439;DHT22;3252;52.540;13.290;2023-03-21T12:37:33;12.70;99.90
6439;DHT22;3252;52.540;13.290;2023-03-21T12:39:39;12.70;99.90
6439;DHT22;3252;52.540;13.290;2023-03-21T12:41:43;12.70;99.90
6439;DHT22;3252;52.540;13.290;2023-03-21T12:43:49;12.60;99.90
6439;DHT22;3252;52.540;13.290;2023-03-21T12:45:57;12.50;99.90
6439;DHT22;3252;52.540;13.290;2023-03-21T12:48:14;12.60;99.90
6439;DHT22;3252;52.540;13.290;2023-03-21T12:50:20;12.50;99.90
6439;DHT22;3252;52.540;13.290;2023-03-21T12:52:25;12.50;99.90
6439;DHT22;3252;52.540;13.290;2023-03-21T12:54:33;12.50;99.90
6439;DHT22;3252;52.540;13.290;2023-03-21T12:56:44;12.60;99.90
6439;DHT22;3252;52.540;13.290;2023-03-21T12:58:53;12.50;99.90
6439;DHT22;3252;52.540;13.290;2023-03-21T13:00:58;12.60;99.90
6439;DHT22;3252;52.540;13.290;2023-03-21T13:03:04;12.60;99.90
6439;DHT22;3252;52.540;13.290;2023-03-21T13:05:16;12.60;99.90
6439;DHT22;3252;52.540;13.290;2023-03-21T13:07:22;12.70;99.90
6439;DHT22;3252;52.540;13.290;2023-03-21T13:09:30;12.70;99.90
6439;DHT22;3252;52.540;13.290;2023-03-21T13:11:36;12.70;99.90
6439;DHT22;3252;52.540;13.290;2023-03-21T13:13:42;12.70;99.90
6439;DHT22;3252;52.540;13.290;2023-03-21T13:15:57;12.60;99.90
6439;DHT22;3252;52.540;13.290;2023-03-21T13:18:03;12.60;99.90
6439;DHT22;3252;52.540;13.290;2023-03-21T13:20:20;12.60;99.90
6439;DHT22;3252;52.540;13.290;2023-03-21T13:22:26;12.60;99.90
6439;DHT22;3252;52.540;13.290;2023-03-21T13:24:37;12.60;99.90
6439;DHT22;3252;52.540;13.290;2023-03-21T13:26:44;12.60;99.90
6439;DHT22;3252;52.540;13.290;2023-03-21T13:28:49;12.50;99.90
6439;DHT22;3252;52.540;13.290;2023-03-21T13:30:53;12.40;99.90
6439;DHT22;3252;52.540;13.290;2023-03-21T13:33:20;12.30;99.90
6439;DHT22;3252;52.540;13.290;2023-03-21T13:35:32;12.30;99.90
6439;DHT22;3252;52.540;13.290;2023-03-21T13:37:39;12.30;99.90
6439;DHT22;3252;52.540;13.290;2023-03-21T13:39:44;12.40;99.90
6439;DHT22;3252;52.540;13.290;2023-03-21T13:41:49;12.40;99.90
6439;DHT22;3252;52.540;13.290;2023-03-21T13:43:53;12.40;99.90
6439;DHT22;3252;52.540;13.290;2023-03-21T13:46:05;12.40;99.90
6439;DHT22;3252;52.540;13.290;2023-03-21T13:48:26;12.40;99.90
6439;DHT22;3252;52.540;13.290;2023-03-21T13:50:33;12.40;99.90
6439;DHT22;3252;52.540;13.290;2023-03-21T13:52:36;12.50;99.90
6439;DHT22;3252;52.540;13.290;2023-03-21T13:54:44;12.50;99.90
6439;DHT22;3252;52.540;13.290;2023-03-21T13:56:53;12.50;99.90
6439;DHT22;3252;52.540;13.290;2023-03-21T13:58:59;12.50;99.90
6439;DHT22;3252;52.540;13.290;2023-03-21T14:01:15;12.50;99.90
6439;DHT22;3252;52.540;13.290;2023-03-21T14:03:21;12.50;99.90
6439;DHT22;3252;52.540;13.290;2023-03-21T14:05:25;12.50;99.90